Time;durP1;ratioP1;P1;durP2;ratioP2;P2;SDS_P1;SDS_P2;PMS_P1;PMS_P2;Temp;Humidity;BMP_temperature;BMP_pressure;BME280_temperature;BME280_humidity;BME280_pressure;Samples;Min_cycle;Max_cycle;Signal;HPM_P1;HPM_P2
2022/01/18 00:00:44;;;;;;;5.72;2.50;;;;;;;-5.54;86.24;99910.53;5018565;28;20057;-70
2022/01/18 00:03:17;;;;;;;7.63;2.65;;;;;;;-5.88;85.70;99863.31;5018395;28;20118;-69
2022/01/18 00:05:49;;;;;;;9.65;3.30;;;;;;;-5.47;86.09;99904.88;5016417;28;20054;-71
2022/01/18 00:08:20;;;;;;;7.10;3.08;;;;;;;-5.30;85.59;99941.25;5008409;28;20392;-70
2022/01/18 00:10:51;;;;;;;10.13;2.90;;;;;;;-5.37;85.85;99929.94;5009529;28;20058;-71
2022/01/18 00:13:37;;;;;;;6.82;3.53;;;;;;;-5.35;85.77;99917.28;5018017;28;20113;-70
2022/01/18 00:16:24;;;;;;;7.80;4.18;;;;;;;-5.17;86.09;99935.00;5018005;28;20050;-71
2022/01/18 00:18:59;;;;;;;9.77;4.05;;;;;;;-5.11;86.33;99919.97;5018074;28;20092;-70
2022/01/18 00:21:48;;;;;;;8.13;3.25;;;;;;;-4.86;86.14;99940.53;5017991;28;20056;-70
2022/01/18 00:24:19;;;;;;;11.90;4.55;;;;;;;-4.65;85.69;99934.53;5017916;28;20058;-70
2022/01/18 00:26:50;;;;;;;6.07;3.55;;;;;;;-4.54;85.01;99940.94;5017925;28;20049;-71
2022/01/18 00:29:23;;;;;;;5.50;3.85;;;;;;;-4.47;85.04;99935.22;5008761;28;20081;-71
2022/01/18 00:32:06;;;;;;;12.82;4.00;;;;;;;-4.37;84.55;99945.00;5001657;28;20108;-71
2022/01/18 00:34:40;;;;;;;8.73;3.47;;;;;;;-4.30;83.97;99938.44;5004973;28;20100;-72
2022/01/18 00:37:36;;;;;;;10.30;4.78;;;;;;;-4.23;83.81;99944.66;5004986;28;20050;-71
2022/01/18 00:40:09;;;;;;;8.25;3.22;;;;;;;-4.26;83.18;99929.25;5004938;28;20078;-71
2022/01/18 00:42:39;;;;;;;10.75;4.07;;;;;;;-4.15;83.26;99956.00;5004485;28;20089;-78
2022/01/18 00:45:11;;;;;;;4.28;2.58;;;;;;;-4.13;82.12;99956.94;5002488;28;20069;-72
2022/01/18 00:47:42;;;;;;;7.45;2.92;;;;;;;-4.10;82.16;99957.03;5004549;28;20143;-73
2022/01/18 00:50:14;;;;;;;6.97;3.38;;;;;;;-4.12;82.31;99945.91;5004363;28;20089;-71
2022/01/18 00:52:50;;;;;;;5.30;2.78;;;;;;;-4.04;82.09;99954.75;5004713;28;20589;-73
2022/01/18 00:55:21;;;;;;;4.15;2.40;;;;;;;-4.02;81.93;99965.88;5003949;28;20385;-71
2022/01/18 00:57:54;;;;;;;5.97;3.20;;;;;;;-4.10;81.64;99951.94;5004275;28;20092;-72
2022/01/18 01:00:25;;;;;;;5.18;2.50;;;;;;;-3.94;81.06;99969.56;5003902;28;20054;-72
2022/01/18 01:02:56;;;;;;;5.85;2.95;;;;;;;-4.08;80.67;99940.13;5004057;28;20050;-73
2022/01/18 01:05:29;;;;;;;4.15;2.78;;;;;;;-4.07;80.59;99946.94;5004063;28;20437;-72
2022/01/18 01:08:00;;;;;;;5.82;2.55;;;;;;;-3.88;80.22;99957.84;5003682;28;20058;-72
2022/01/18 01:10:33;;;;;;;5.43;2.75;;;;;;;-4.09;80.33;99928.19;5003727;28;20400;-72
2022/01/18 01:13:04;;;;;;;8.45;3.08;;;;;;;-3.93;80.08;99965.34;5003654;28;20054;-73
2022/01/18 01:15:51;;;;;;;4.88;3.15;;;;;;;-4.26;80.27;99903.72;5003322;28;20116;-72
2022/01/18 01:18:37;;;;;;;6.15;2.83;;;;;;;-3.93;80.05;99966.19;5003456;28;20077;-72
2022/01/18 01:33:03;;;;;;;8.93;3.10;;;;;;;-4.41;81.11;99853.88;4965978;28;20115;-71
2022/01/18 01:35:44;;;;;;;13.60;3.25;;;;;;;-3.80;80.31;99925.81;5003806;28;20177;-72
2022/01/18 01:44:03;;;;;;;6.25;2.97;;;;;;;-3.55;81.92;99956.50;5003354;28;20056;-72
2022/01/18 01:46:35;;;;;;;3.53;2.35;;;;;;;-3.53;81.81;99942.09;5003315;28;20094;-72
2022/01/18 01:49:12;;;;;;;3.95;2.03;;;;;;;-3.60;80.63;99945.25;5002617;28;20052;-71
2022/01/18 01:51:43;;;;;;;2.50;1.88;;;;;;;-3.27;80.32;99965.09;5002240;28;20062;-72
2022/01/18 01:54:17;;;;;;;3.08;1.98;;;;;;;-3.32;80.00;99959.88;5003881;28;20054;-71
2022/01/18 01:56:47;;;;;;;6.60;2.60;;;;;;;-3.26;80.36;99964.31;5003806;28;20117;-71
2022/01/18 01:59:18;;;;;;;8.10;2.58;;;;;;;-3.39;80.73;99955.34;5001017;28;20084;-71
2022/01/18 02:01:50;;;;;;;4.50;2.20;;;;;;;-3.38;80.48;99951.13;5002038;28;20106;-72
2022/01/18 02:04:21;;;;;;;5.00;2.22;;;;;;;-3.42;80.69;99964.59;5001709;28;20050;-73
2022/01/18 02:06:52;;;;;;;5.93;2.35;;;;;;;-3.45;81.23;99969.59;5002186;28;20056;-74
2022/01/18 02:09:24;;;;;;;8.88;2.90;;;;;;;-3.44;81.63;99971.31;5001404;28;20076;-74
2022/01/18 02:11:57;;;;;;;7.75;2.25;;;;;;;-3.72;81.58;99949.91;5000193;28;20041;-73
2022/01/18 02:14:29;;;;;;;7.38;2.45;;;;;;;-3.42;81.40;99974.81;4999358;28;20058;-72
2022/01/18 02:22:37;;;;;;;4.95;2.60;;;;;;;-3.75;81.25;99970.22;5005940;28;20057;-73
2022/01/18 02:25:08;;;;;;;4.50;2.08;;;;;;;-3.64;81.31;99989.38;5005502;28;20724;-74
2022/01/18 02:27:39;;;;;;;6.75;2.50;;;;;;;-3.57;80.76;99970.91;5004796;28;20700;-72
2022/01/18 02:30:11;;;;;;;5.57;2.47;;;;;;;-3.29;80.06;99977.00;5011893;28;21258;-74
2022/01/18 02:32:41;;;;;;;8.10;2.53;;;;;;;-3.12;79.28;99965.66;5016454;28;20084;-72
2022/01/18 02:35:12;;;;;;;5.88;2.08;;;;;;;-2.97;78.45;100007.84;5016567;28;20053;-73
2022/01/18 02:37:44;;;;;;;4.35;2.40;;;;;;;-3.02;79.13;99992.41;5016264;28;20057;-73
2022/01/18 02:40:16;;;;;;;4.38;2.33;;;;;;;-3.18;80.11;100006.31;5016518;28;20053;-73
2022/01/18 02:42:56;;;;;;;8.25;2.53;;;;;;;-3.21;80.22;99990.88;5016706;28;20308;-72
2022/01/18 02:45:28;;;;;;;5.15;2.60;;;;;;;-3.27;79.57;99985.53;5016156;28;20096;-73
2022/01/18 02:47:59;;;;;;;6.00;2.35;;;;;;;-3.34;79.73;100001.50;5016016;28;20251;-73
2022/01/18 02:50:30;;;;;;;4.00;2.17;;;;;;;-3.30;80.58;100001.63;5015729;28;20073;-73
2022/01/18 02:53:02;;;;;;;4.50;2.08;;;;;;;-3.37;81.42;99993.72;5015699;28;20042;-74
2022/01/18 02:55:34;;;;;;;5.47;1.88;;;;;;;-3.35;80.52;99992.09;5016234;28;20062;-74
2022/01/18 02:58:09;;;;;;;2.47;1.95;;;;;;;-3.34;81.03;99983.63;5015331;28;20081;-74
2022/01/18 03:03:11;;;;;;;9.02;2.35;;;;;;;-3.24;80.09;99993.34;5016391;28;20772;-72
2022/01/18 03:03:38;;;;;;;6.78;2.42;;;;;;;-3.12;79.81;99968.22;5016088;28;20049;-70
2022/01/18 03:06:09;;;;;;;6.22;2.13;;;;;;;-2.92;79.93;100003.78;5016087;28;20060;-74
2022/01/18 03:08:41;;;;;;;10.43;1.95;;;;;;;-3.03;79.43;100011.94;5016415;28;20263;-73
2022/01/18 03:11:12;;;;;;;6.60;2.00;;;;;;;-3.23;80.25;99997.63;5015841;28;20066;-72
2022/01/18 03:13:44;;;;;;;2.78;2.13;;;;;;;-3.22;80.45;100014.72;5015798;28;20054;-72
2022/01/18 03:16:15;;;;;;;6.82;2.50;;;;;;;-3.36;81.07;99988.66;5015711;28;20064;-73
2022/01/18 03:18:46;;;;;;;3.83;1.90;;;;;;;-3.30;81.34;100021.22;5016026;28;20236;-72
2022/01/18 03:21:18;;;;;;;13.60;2.50;;;;;;;-3.40;80.75;99994.47;5016057;28;20075;-73
2022/01/18 03:23:54;;;;;;;3.20;2.20;;;;;;;-3.43;79.56;99996.06;5015932;28;20050;-72
2022/01/18 03:26:32;;;;;;;5.13;2.08;;;;;;;-3.60;79.62;99991.22;5015701;28;20057;-72
2022/01/18 03:29:01;;;;;;;5.03;2.63;;;;;;;-3.52;80.38;100005.16;5015091;28;20062;-72
2022/01/18 03:31:32;;;;;;;8.77;3.33;;;;;;;-3.63;80.43;99991.09;5014878;28;20068;-72
2022/01/18 03:34:03;;;;;;;8.25;2.70;;;;;;;-3.75;80.11;100003.44;5015225;28;20034;-72
2022/01/18 03:36:33;;;;;;;7.57;2.65;;;;;;;-3.83;80.00;99986.97;5015069;28;20066;-73
2022/01/18 03:39:06;;;;;;;5.38;2.30;;;;;;;-3.71;79.12;100020.59;5015270;28;20054;-73
2022/01/18 03:41:37;;;;;;;4.18;2.22;;;;;;;-3.73;79.24;100017.13;5015361;28;20048;-73
2022/01/18 03:44:08;;;;;;;7.68;2.40;;;;;;;-3.83;78.89;99974.19;5015099;28;20065;-73
2022/01/18 03:46:39;;;;;;;10.82;2.80;;;;;;;-3.75;77.95;99990.66;5015136;28;20312;-72
2022/01/18 03:49:10;;;;;;;4.18;2.08;;;;;;;-3.71;78.72;100016.38;5014597;28;20061;-74
2022/01/18 03:51:40;;;;;;;3.15;2.58;;;;;;;-3.87;78.76;100015.72;5014885;28;20057;-73
2022/01/18 03:54:13;;;;;;;4.72;2.40;;;;;;;-3.87;78.82;100018.28;5015217;28;20071;-73
2022/01/18 03:56:44;;;;;;;5.35;2.67;;;;;;;-4.00;78.01;100010.16;5014981;28;20050;-73
2022/01/18 03:59:15;;;;;;;6.90;2.78;;;;;;;-3.95;77.64;100018.88;5014631;28;20068;-73
2022/01/18 04:01:45;;;;;;;6.28;2.47;;;;;;;-3.83;77.54;100022.72;5014219;28;20060;-72
2022/01/18 04:04:19;;;;;;;2.33;1.65;;;;;;;-3.90;77.21;100011.38;5015033;28;20049;-73
2022/01/18 04:06:49;;;;;;;5.03;2.38;;;;;;;-3.65;77.17;100025.94;5015184;28;20087;-72
2022/01/18 04:09:22;;;;;;;4.97;2.70;;;;;;;-3.67;76.81;100039.44;5014986;28;20053;-73
2022/01/18 04:11:53;;;;;;;3.00;2.10;;;;;;;-3.90;77.39;100017.34;5014742;28;20128;-73
2022/01/18 04:14:24;;;;;;;4.32;2.83;;;;;;;-3.92;76.19;100019.00;5014543;28;20137;-73
2022/01/18 04:17:04;;;;;;;6.07;2.30;;;;;;;-4.01;77.61;100044.16;5014587;28;20061;-74
2022/01/18 04:28:05;;;;;;;8.63;3.55;;;;;;;-3.98;78.11;100057.03;5014332;28;20045;-74
2022/01/18 04:30:37;;;;;;;6.78;2.45;;;;;;;-3.91;77.19;100051.38;5006389;28;20070;-75
2022/01/18 04:33:08;;;;;;;5.43;2.83;;;;;;;-3.91;77.50;100059.03;5004410;28;20047;-73
2022/01/18 04:35:39;;;;;;;8.35;2.72;;;;;;;-4.04;77.72;100049.16;5004478;28;20077;-75
2022/01/18 04:38:09;;;;;;;6.57;2.20;;;;;;;-3.90;78.31;100065.84;5004607;28;20245;-75
2022/01/18 04:40:45;;;;;;;6.13;2.28;;;;;;;-3.99;79.35;100078.28;5004339;28;20080;-74
2022/01/18 04:43:21;;;;;;;9.40;4.07;;;;;;;-4.07;79.60;100079.63;5004052;28;20105;-75
2022/01/18 04:48:40;;;;;;;5.40;2.20;;;;;;;-4.27;77.69;100090.75;5004217;28;20054;-74
2022/01/18 04:51:12;;;;;;;2.78;1.85;;;;;;;-4.57;78.40;100048.78;5004187;28;20056;-74
2022/01/18 04:53:51;;;;;;;3.40;2.17;;;;;;;-4.63;78.45;100040.00;5004328;28;20046;-72
2022/01/18 04:56:30;;;;;;;7.68;2.38;;;;;;;-4.33;78.39;100070.97;5004236;28;20052;-74
2022/01/18 04:58:59;;;;;;;6.32;2.40;;;;;;;-4.25;78.48;100089.13;5003933;28;20203;-74
2022/01/18 05:01:30;;;;;;;3.47;1.67;;;;;;;-4.34;78.12;100080.31;5003706;28;20230;-74
2022/01/18 05:04:01;;;;;;;4.75;2.17;;;;;;;-4.32;78.15;100082.03;5003812;28;20057;-73
2022/01/18 05:06:33;;;;;;;5.47;2.15;;;;;;;-4.30;78.09;100100.81;5003578;28;20089;-73
2022/01/18 05:09:08;;;;;;;7.25;2.38;;;;;;;-4.28;78.27;100094.97;5003967;28;20322;-73
2022/01/18 05:11:50;;;;;;;6.65;2.67;;;;;;;-4.35;77.95;100082.78;5003480;28;20060;-73
2022/01/18 05:14:32;;;;;;;9.20;2.40;;;;;;;-4.58;78.17;100053.81;5004338;28;20289;-73
2022/01/18 05:17:06;;;;;;;4.13;1.88;;;;;;;-4.50;78.49;100083.03;5004035;28;20062;-73
2022/01/18 05:19:45;;;;;;;4.03;1.98;;;;;;;-4.39;78.79;100106.44;5003992;28;20056;-74
2022/01/18 05:25:04;;;;;;;4.95;2.38;;;;;;;-4.56;78.46;100103.19;5003695;28;20058;-74
2022/01/18 05:27:37;;;;;;;7.07;2.47;;;;;;;-4.42;78.23;100122.50;5003578;28;20046;-73
2022/01/18 05:30:09;;;;;;;3.65;1.92;;;;;;;-4.51;78.39;100111.91;5003581;28;20100;-73
2022/01/18 05:32:39;;;;;;;2.72;1.67;;;;;;;-4.51;79.04;100096.59;5003523;28;20054;-74
2022/01/18 05:35:10;;;;;;;7.18;2.70;;;;;;;-4.46;78.79;100112.97;5003201;28;20568;-73
2022/01/18 05:37:41;;;;;;;7.18;3.28;;;;;;;-4.52;79.01;100120.34;5002539;28;20045;-73
2022/01/18 05:40:12;;;;;;;4.43;1.80;;;;;;;-4.43;78.73;100140.28;5003802;28;20072;-74
2022/01/18 05:42:45;;;;;;;3.65;2.17;;;;;;;-4.54;79.43;100137.28;5003536;28;20057;-73
2022/01/18 05:45:17;;;;;;;7.22;2.45;;;;;;;-4.46;78.85;100141.00;5003466;28;20046;-73
2022/01/18 05:47:48;;;;;;;6.35;2.20;;;;;;;-4.78;79.06;100097.19;5003552;28;20056;-73
2022/01/18 05:50:19;;;;;;;7.75;2.65;;;;;;;-4.44;79.71;100149.59;5002961;28;20045;-73
2022/01/18 05:52:50;;;;;;;5.63;2.13;;;;;;;-4.47;79.68;100154.56;5002284;28;20062;-73
2022/01/18 05:55:21;;;;;;;5.07;2.40;;;;;;;-4.61;80.58;100140.38;5005188;28;20108;-74
2022/01/18 05:57:53;;;;;;;9.23;2.65;;;;;;;-4.60;81.52;100182.91;5007378;28;20058;-72
2022/01/18 06:00:26;;;;;;;6.75;2.30;;;;;;;-4.61;81.81;100165.88;5007172;28;20073;-73
2022/01/18 06:03:13;;;;;;;8.98;2.50;;;;;;;-4.69;81.67;100157.00;5007120;28;20051;-72
2022/01/18 06:08:31;;;;;;;5.85;1.88;;;;;;;-4.83;80.67;100149.63;5006448;28;20372;-75
2022/01/18 06:11:02;;;;;;;8.18;2.47;;;;;;;-4.91;81.27;100130.59;5006897;28;20081;-74
2022/01/18 06:13:35;;;;;;;14.98;2.40;;;;;;;-4.82;80.35;100146.31;5006756;28;20056;-73
2022/01/18 06:16:08;;;;;;;8.68;3.20;;;;;;;-4.75;80.63;100166.94;5006978;28;20088;-74
2022/01/18 06:18:39;;;;;;;8.07;2.40;;;;;;;-4.65;80.60;100184.38;5006736;28;20072;-74
2022/01/18 06:21:10;;;;;;;9.13;2.88;;;;;;;-4.63;80.85;100182.78;5006452;28;20080;-75
2022/01/18 06:23:40;;;;;;;3.90;1.85;;;;;;;-4.90;81.29;100168.00;5006177;28;20054;-72
2022/01/18 06:26:15;;;;;;;9.30;2.20;;;;;;;-4.81;82.80;100199.00;5006836;28;20056;-74
2022/01/18 06:28:47;;;;;;;8.50;2.50;;;;;;;-4.95;83.75;100194.97;5006094;28;20732;-74
2022/01/18 06:31:20;;;;;;;11.88;2.22;;;;;;;-5.05;83.75;100203.00;5006436;28;20345;-74
2022/01/18 06:33:51;;;;;;;5.10;1.88;;;;;;;-5.10;83.95;100200.25;5005063;28;20046;-75
2022/01/18 06:36:25;;;;;;;10.00;2.50;;;;;;;-5.00;83.95;100221.94;5005947;28;20046;-74
2022/01/18 06:38:57;;;;;;;4.32;2.10;;;;;;;-5.71;82.66;100111.75;5006349;28;20333;-73
2022/01/18 06:41:27;;;;;;;6.07;2.50;;;;;;;-5.01;82.19;100210.00;5006143;28;20090;-73
2022/01/18 06:44:00;;;;;;;4.72;2.08;;;;;;;-5.13;81.87;100204.34;5005767;28;20054;-74
2022/01/18 06:46:30;;;;;;;5.00;2.28;;;;;;;-5.22;82.19;100220.97;5005979;28;20050;-72
2022/01/18 06:49:02;;;;;;;12.23;2.88;;;;;;;-4.99;82.23;100228.78;5006391;28;20252;-73
2022/01/18 06:51:34;;;;;;;11.45;2.88;;;;;;;-4.96;82.20;100239.13;5006049;28;20068;-73
2022/01/18 06:54:05;;;;;;;7.70;2.13;;;;;;;-4.98;81.70;100240.72;5005936;28;20118;-74
2022/01/18 06:56:35;;;;;;;6.15;1.90;;;;;;;-4.96;81.47;100244.22;5005340;28;20062;-73
2022/01/18 06:59:08;;;;;;;6.93;2.33;;;;;;;-4.93;81.70;100253.66;5005743;28;20129;-73
2022/01/18 07:01:39;;;;;;;5.97;2.20;;;;;;;-4.97;82.83;100267.94;5006389;28;20361;-72
2022/01/18 07:04:10;;;;;;;18.05;2.40;;;;;;;-5.09;84.04;100252.97;5006225;28;20364;-72
2022/01/18 07:06:41;;;;;;;5.18;2.08;;;;;;;-5.22;84.86;100246.44;5005325;28;20310;-72
2022/01/18 07:09:11;;;;;;;8.23;2.20;;;;;;;-5.15;85.20;100274.72;5005760;28;20046;-73
2022/01/18 07:11:42;;;;;;;6.32;2.30;;;;;;;-5.27;85.80;100257.19;5005851;28;20054;-73
2022/01/18 07:14:15;;;;;;;5.40;2.20;;;;;;;-5.21;86.20;100277.88;5004384;28;20160;-73
2022/01/18 07:16:45;;;;;;;5.88;1.88;;;;;;;-5.23;86.52;100287.97;5005679;28;20065;-73
2022/01/18 07:19:16;;;;;;;5.38;2.22;;;;;;;-5.29;86.90;100285.16;5005466;28;20113;-73
2022/01/18 07:21:47;;;;;;;4.00;2.20;;;;;;;-5.35;86.64;100264.47;5004932;28;20058;-73
2022/01/18 07:24:28;;;;;;;5.53;2.53;;;;;;;-5.24;86.80;100304.06;5002961;28;20277;-72
2022/01/18 07:26:59;;;;;;;6.03;2.13;;;;;;;-5.28;86.45;100297.09;5005601;28;20042;-73
2022/01/18 07:29:31;;;;;;;7.13;2.33;;;;;;;-5.30;86.05;100273.22;5002916;28;20057;-77
2022/01/18 07:32:03;;;;;;;4.78;2.45;;;;;;;-5.77;86.36;100232.75;5005718;28;20041;-73
2022/01/18 07:34:35;;;;;;;4.00;1.90;;;;;;;-5.26;85.51;100300.56;5004671;28;20061;-73
2022/01/18 07:37:06;;;;;;;7.47;2.08;;;;;;;-5.24;85.62;100314.28;5005454;28;20423;-73
2022/01/18 07:39:37;;;;;;;3.40;2.05;;;;;;;-5.31;86.00;100290.97;5005518;28;20359;-72
2022/01/18 07:42:09;;;;;;;5.75;2.10;;;;;;;-5.76;85.50;100245.56;5005531;28;20062;-73
2022/01/18 07:44:41;;;;;;;5.78;2.03;;;;;;;-5.24;85.31;100314.28;5005510;28;20050;-73
2022/01/18 07:47:12;;;;;;;5.75;2.67;;;;;;;-5.29;84.66;100308.09;5005465;28;20541;-73
2022/01/18 07:49:47;;;;;;;11.10;2.25;;;;;;;-5.36;84.62;100308.59;5004812;28;20256;-73
2022/01/18 07:52:18;;;;;;;8.77;2.75;;;;;;;-5.32;83.97;100305.38;5005040;28;20050;-73
2022/01/18 07:54:49;;;;;;;10.20;2.70;;;;;;;-5.20;84.52;100326.31;5005197;28;20050;-72
2022/01/18 07:57:21;;;;;;;10.68;2.30;;;;;;;-5.21;84.27;100347.53;5005175;28;20041;-72
2022/01/18 07:59:53;;;;;;;8.68;2.38;;;;;;;-5.30;83.60;100308.88;5004004;28;20555;-73
2022/01/18 08:02:24;;;;;;;5.57;2.25;;;;;;;-5.12;83.20;100338.56;5005327;28;20075;-73
2022/01/18 08:04:55;;;;;;;7.72;2.45;;;;;;;-5.26;83.37;100323.50;5005010;28;20050;-73
2022/01/18 08:07:26;;;;;;;9.85;3.45;;;;;;;-5.18;82.68;100340.84;5005057;28;20150;-73
2022/01/18 08:09:57;;;;;;;6.97;2.47;;;;;;;-5.11;82.78;100350.53;5005047;28;20117;-72
2022/01/18 08:12:27;;;;;;;5.40;2.40;;;;;;;-5.17;82.46;100345.97;5005123;28;20077;-72
2022/01/18 08:15:03;;;;;;;4.65;2.05;;;;;;;-5.12;82.52;100358.94;5004501;28;20061;-72
2022/01/18 08:17:53;;;;;;;5.03;2.58;;;;;;;-5.09;82.80;100374.38;5003823;28;20379;-73
2022/01/18 08:20:24;;;;;;;4.72;2.17;;;;;;;-5.69;81.71;100293.44;5003533;28;20089;-71
2022/01/18 08:22:55;;;;;;;5.90;2.97;;;;;;;-5.14;81.97;100360.53;5002308;28;20120;-73
2022/01/18 08:25:26;;;;;;;8.00;3.33;;;;;;;-5.18;81.44;100354.44;5004633;28;20057;-72
2022/01/18 08:27:57;;;;;;;9.43;2.45;;;;;;;-5.12;81.85;100353.84;5004699;28;20065;-72
2022/01/18 08:30:29;;;;;;;2.88;2.15;;;;;;;-5.28;81.69;100347.16;5011530;28;20520;-72
2022/01/18 08:33:00;;;;;;;8.55;2.40;;;;;;;-5.05;80.78;100372.03;5014389;28;20121;-71
2022/01/18 08:35:31;;;;;;;6.45;2.30;;;;;;;-5.04;80.28;100384.00;5014572;28;20045;-73
2022/01/18 08:38:02;;;;;;;8.68;2.70;;;;;;;-5.01;nan;100378.19;5012751;28;20056;-73
2022/01/18 08:40:33;;;;;;;5.72;2.05;;;;;;;-5.15;80.00;100351.16;5012364;28;20049;-74
2022/01/18 08:43:04;;;;;;;7.05;2.45;;;;;;;-5.25;79.72;100368.53;5014180;28;20353;-73
2022/01/18 08:45:37;;;;;;;8.15;1.95;;;;;;;-5.00;79.95;100390.13;5014008;28;20042;-71
2022/01/18 08:48:08;;;;;;;6.68;2.42;;;;;;;-4.97;80.34;100395.34;5012399;28;20113;-73
2022/01/18 08:50:39;;;;;;;9.82;2.35;;;;;;;-4.99;80.36;100396.97;5013850;28;20049;-74
2022/01/18 08:53:11;;;;;;;7.35;2.85;;;;;;;-5.10;80.32;100387.91;5013794;28;20053;-72
2022/01/18 08:55:42;;;;;;;5.85;2.22;;;;;;;-4.98;79.88;100424.19;5014067;28;20058;-74
2022/01/18 08:58:12;;;;;;;11.07;2.92;;;;;;;-5.00;79.89;100415.59;5013859;28;20340;-73
2022/01/18 09:00:46;;;;;;;8.77;2.60;;;;;;;-4.99;80.68;100413.13;5013845;28;20062;-72
2022/01/18 09:03:17;;;;;;;9.65;2.25;;;;;;;-5.04;80.00;100408.59;5013550;28;20053;-73
2022/01/18 09:05:48;;;;;;;10.32;2.55;;;;;;;-5.56;80.02;100319.50;5013363;28;20092;-73
2022/01/18 09:08:20;;;;;;;5.90;2.58;;;;;;;-4.98;79.75;100419.09;5013661;28;20061;-73
2022/01/18 09:10:52;;;;;;;3.67;1.92;;;;;;;-5.06;79.27;100425.50;5013813;28;20558;-72
2022/01/18 09:13:23;;;;;;;5.50;2.10;;;;;;;-4.96;79.02;100437.88;5013535;28;20117;-72
2022/01/18 09:15:55;;;;;;;6.43;2.30;;;;;;;-5.06;78.56;100436.56;5013087;28;20392;-72
2022/01/18 09:18:26;;;;;;;8.23;2.10;;;;;;;-5.01;79.57;100446.97;5013046;28;20054;-73
2022/01/18 09:20:57;;;;;;;3.38;1.95;;;;;;;-5.08;79.11;100457.66;5013674;28;20362;-74
2022/01/18 09:23:28;;;;;;;6.45;2.10;;;;;;;-5.15;79.20;100450.53;5013459;28;20050;-74
2022/01/18 09:25:59;;;;;;;4.97;1.90;;;;;;;-5.07;79.36;100459.41;5013974;28;20054;-73
2022/01/18 09:28:30;;;;;;;4.00;1.83;;;;;;;-5.11;79.84;100462.63;5013804;28;20113;-74
2022/01/18 09:31:03;;;;;;;5.25;2.40;;;;;;;-5.27;80.55;100435.50;5017946;28;20085;-73
2022/01/18 09:33:33;;;;;;;5.10;2.08;;;;;;;-5.21;80.47;100463.84;5017165;28;20085;-73
2022/01/18 09:36:04;;;;;;;7.88;2.35;;;;;;;-5.18;80.57;100470.75;5015897;28;20410;-73
2022/01/18 09:38:35;;;;;;;3.60;1.70;;;;;;;-5.24;80.50;100467.09;5017147;28;20489;-72
2022/01/18 09:41:11;;;;;;;6.72;2.38;;;;;;;-5.43;81.07;100449.13;5017499;28;20058;-73
2022/01/18 09:43:43;;;;;;;6.70;2.25;;;;;;;-5.43;80.98;100441.50;5017565;28;20112;-73
2022/01/18 09:46:15;;;;;;;6.45;2.10;;;;;;;-5.53;80.37;100431.66;5017459;28;20037;-72
2022/01/18 09:48:49;;;;;;;8.13;2.00;;;;;;;-5.28;80.91;100475.38;5017544;28;20113;-74
2022/01/18 09:51:20;;;;;;;9.05;2.15;;;;;;;-5.18;81.08;100498.78;5017358;28;20260;-72
2022/01/18 09:53:51;;;;;;;7.53;1.73;;;;;;;-5.37;80.87;100472.34;5016248;28;20076;-72
2022/01/18 09:56:22;;;;;;;7.40;2.10;;;;;;;-5.23;81.51;100494.31;5016335;28;20042;-72
2022/01/18 09:58:53;;;;;;;10.13;2.33;;;;;;;-5.24;81.61;100512.09;5016587;28;20061;-72
2022/01/18 10:01:26;;;;;;;7.63;2.20;;;;;;;-5.32;81.54;100506.56;5016614;28;20050;-72
2022/01/18 10:04:16;;;;;;;8.30;2.72;;;;;;;-5.25;81.81;100521.38;5016205;28;20045;-73
2022/01/18 10:06:49;;;;;;;5.45;1.55;;;;;;;-5.58;81.77;100477.25;5017139;28;20073;-72
2022/01/18 10:09:21;;;;;;;8.30;2.13;;;;;;;-5.38;82.72;100513.91;5015702;28;20053;-72
2022/01/18 10:12:12;;;;;;;4.35;1.75;;;;;;;-5.45;83.09;100501.66;5016132;28;21157;-73
2022/01/18 10:14:55;;;;;;;10.27;2.83;;;;;;;-5.31;83.64;100530.41;5016272;28;20058;-72
2022/01/18 10:17:34;;;;;;;7.72;2.38;;;;;;;-5.34;84.05;100541.31;5017149;28;20133;-72
2022/01/18 10:20:12;;;;;;;8.70;2.88;;;;;;;-5.36;84.51;100537.81;5016882;28;20060;-72
2022/01/18 10:22:44;;;;;;;7.50;1.98;;;;;;;-5.40;85.01;100533.34;5016790;28;20063;-74
2022/01/18 10:25:16;;;;;;;7.78;1.98;;;;;;;-5.48;85.47;100537.16;5016562;28;20046;-73
2022/01/18 10:27:49;;;;;;;4.43;1.73;;;;;;;-5.44;86.04;100551.81;5016907;28;20054;-74
2022/01/18 10:30:26;;;;;;;13.57;2.50;;;;;;;-5.49;86.16;100543.94;5016133;28;20142;-73
2022/01/18 10:33:12;;;;;;;6.10;2.03;;;;;;;-5.68;86.02;100519.16;5016549;28;20056;-73
2022/01/18 10:36:04;;;;;;;10.88;2.63;;;;;;;-5.52;86.13;100550.50;5015118;28;20061;-73
2022/01/18 10:38:35;;;;;;;9.43;3.33;;;;;;;-5.74;85.88;100523.94;5014723;28;20056;-71
2022/01/18 10:41:28;;;;;;;7.07;2.65;;;;;;;-5.53;85.30;100561.50;5013695;28;20125;-72
2022/01/18 10:44:07;;;;;;;8.40;2.95;;;;;;;-5.56;84.98;100553.72;5014677;28;20410;-74
2022/01/18 10:46:40;;;;;;;7.40;1.98;;;;;;;-5.56;85.32;100558.81;5015072;28;20053;-75
2022/01/18 10:49:25;;;;;;;7.28;2.45;;;;;;;-5.60;85.10;100559.44;5015059;28;20085;-73
2022/01/18 10:52:02;;;;;;;12.35;3.13;;;;;;;-5.54;84.97;100569.91;5013853;28;20061;-72
2022/01/18 10:54:38;;;;;;;5.25;2.28;;;;;;;-5.82;84.08;100520.09;5014884;28;20081;-73
2022/01/18 10:57:11;;;;;;;9.75;2.47;;;;;;;-5.80;83.87;100533.78;5014794;28;20057;-73
2022/01/18 10:59:43;;;;;;;6.93;1.95;;;;;;;-5.54;84.15;100572.47;5011608;28;20141;-72
2022/01/18 11:02:17;;;;;;;6.75;2.58;;;;;;;-5.65;84.03;100554.94;5014025;28;20113;-74
2022/01/18 11:04:53;;;;;;;11.13;3.10;;;;;;;-6.04;83.85;100491.78;5014986;28;20057;-72
2022/01/18 11:07:25;;;;;;;8.65;2.25;;;;;;;-5.49;83.46;100591.41;5015334;28;20061;-72
2022/01/18 11:10:03;;;;;;;9.68;2.42;;;;;;;-5.60;82.93;100588.31;5014413;28;20060;-72
2022/01/18 11:12:46;;;;;;;9.30;3.10;;;;;;;-5.58;83.33;100585.84;5014699;28;20065;-72
2022/01/18 11:15:22;;;;;;;7.57;2.10;;;;;;;-6.13;83.15;100495.59;5014707;28;20096;-72
2022/01/18 11:18:00;;;;;;;9.95;2.50;;;;;;;-6.43;82.87;100435.47;5015350;28;20060;-72
2022/01/18 11:20:34;;;;;;;8.70;2.05;;;;;;;-5.53;82.65;100589.50;5014247;28;20153;-72
2022/01/18 11:23:07;;;;;;;10.73;2.42;;;;;;;-5.47;83.26;100613.63;5014059;28;20045;-71
2022/01/18 11:25:42;;;;;;;9.27;1.92;;;;;;;-5.50;83.22;100607.50;5014522;28;20046;-72
2022/01/18 11:28:14;;;;;;;5.47;1.73;;;;;;;-5.56;82.42;100614.81;5014716;28;20087;-73
2022/01/18 11:30:47;;;;;;;6.45;1.83;;;;;;;-5.77;82.35;100595.03;5013119;28;20096;-72
2022/01/18 11:33:20;;;;;;;6.55;1.75;;;;;;;-5.70;82.08;100607.28;5013707;28;20062;-72
2022/01/18 11:35:58;;;;;;;4.80;2.00;;;;;;;-5.68;81.60;100605.72;5014038;28;20112;-72
2022/01/18 11:38:36;;;;;;;10.43;2.20;;;;;;;-5.68;80.46;100615.91;5014899;28;20053;-73
2022/01/18 11:41:23;;;;;;;5.82;1.52;;;;;;;-5.87;80.29;100592.78;5015049;28;20108;-72
2022/01/18 11:43:55;;;;;;;3.58;2.40;;;;;;;-6.33;80.02;100524.16;5014798;28;20041;-73
2022/01/18 11:46:31;;;;;;;3.10;1.60;;;;;;;-5.83;78.40;100599.78;5015191;28;20049;-73
2022/01/18 11:49:04;;;;;;;7.47;2.05;;;;;;;-5.76;77.46;100606.09;5015275;28;20140;-73
2022/01/18 11:51:43;;;;;;;9.52;1.85;;;;;;;-5.87;77.99;100587.69;5014646;28;20048;-72
2022/01/18 11:54:30;;;;;;;9.50;1.90;;;;;;;-5.81;76.59;100603.31;5013762;28;20053;-73
2022/01/18 11:57:03;;;;;;;5.25;2.30;;;;;;;-5.81;75.88;100608.41;5013864;28;20121;-73
2022/01/18 11:59:40;;;;;;;4.85;1.80;;;;;;;-5.69;75.89;100631.97;5014855;28;20439;-74
2022/01/18 12:02:11;;;;;;;4.28;1.55;;;;;;;-5.81;75.75;100626.22;5014283;28;20100;-73
2022/01/18 12:05:12;;;;;;;4.47;1.80;;;;;;;-5.87;75.71;100633.50;5014733;28;20054;-72
2022/01/18 12:07:54;;;;;;;4.47;1.80;;;;;;;-5.92;75.94;100634.91;5015008;28;20064;-72
2022/01/18 12:10:46;;;;;;;6.50;1.85;;;;;;;-5.99;75.57;100618.47;5013663;28;20390;-73
2022/01/18 12:13:30;;;;;;;5.72;2.20;;;;;;;-6.20;74.96;100592.69;5014605;28;20049;-72
2022/01/18 12:16:04;;;;;;;2.83;1.75;;;;;;;-6.02;73.99;100617.41;5014841;28;20336;-73
2022/01/18 12:18:35;;;;;;;10.07;1.88;;;;;;;-6.09;74.47;100616.19;5012744;28;20058;-74
2022/01/18 12:21:19;;;;;;;2.72;1.75;;;;;;;-6.03;74.62;100625.84;5013799;28;20073;-73
2022/01/18 12:23:53;;;;;;;6.65;1.95;;;;;;;-6.12;74.62;100627.06;4998498;28;20085;-73
2022/01/18 12:26:39;;;;;;;4.13;1.67;;;;;;;-6.23;74.63;100617.97;4998476;28;20117;-71
2022/01/18 12:34:54;;;;;;;4.47;1.55;;;;;;;-6.11;71.73;100633.91;5034320;28;20065;-72
2022/01/18 12:37:39;;;;;;;2.63;1.80;;;;;;;-6.16;71.40;100615.00;5038202;28;20063;-71
2022/01/18 12:40:36;;;;;;;4.57;1.90;;;;;;;-6.09;71.22;100637.44;5037683;28;20045;-72
2022/01/18 12:46:01;;;;;;;6.18;2.22;;;;;;;-6.07;71.11;100646.00;5037723;28;20049;-71